This is the latest recevied weather packets stored in our database for station/object PTG2-WX. If no packets are shown the sender has not sent any weather packets the latest 10 day(s).
| Time | Temp. | Humidity | Pressure | Rain* | Wind** | Luminosity | Snow |
|---|---|---|---|---|---|---|---|
| 1787951834 | 18.89° C | 65% | 1015.6 hPa | - | - | - | - |
| 1787948234 | 19.44° C | 71% | 1016.1 hPa | - | - | - | - |
| 1787944634 | 18.89° C | 78% | 1015.8 hPa | - | - | - | - |
| 1787941037 | 19.44° C | 72% | 1015.5 hPa | - | - | - | - |
| 1787937434 | 20.56° C | 68% | 1015.4 hPa | - | - | - | - |
| 1787933833 | 21.11° C | 70% | 1015.2 hPa | - | - | - | - |
| 1787930234 | 20.56° C | 64% | 1014.9 hPa | - | - | - | - |
| 1787926634 | 22.22° C | 54% | 1014.6 hPa | - | - | - | - |
| 1787923034 | 23.33° C | 49% | 1014.2 hPa | - | - | - | - |
| 1787919434 | 23.33° C | 48% | 1014.3 hPa | - | - | - | - |
| 1787915835 | 23.33° C | 52% | 1013.7 hPa | - | - | - | - |
| 1787912234 | 22.22° C | 60% | 1014.4 hPa | - | - | - | - |
| 1787908634 | 21.67° C | 65% | 1014.2 hPa | - | - | - | - |
| 1787905034 | 21.11° C | 64% | 1014.6 hPa | - | - | - | - |
| 1787901434 | 20° C | 73% | 1015.1 hPa | - | - | - | - |
| 1787897834 | 19.44° C | 70% | 1015.5 hPa | - | - | - | - |
| 1787894234 | 18.89° C | 71% | 1015.2 hPa | - | - | - | - |
| 1787890634 | 18.33° C | 73% | 1015 hPa | - | - | - | - |
| 1787887034 | 17.22° C | 80% | 1014.6 hPa | - | - | - | - |
| 1787883434 | 16.67° C | 84% | 1014.5 hPa | - | - | - | - |
| 1787879835 | 17.22° C | 86% | 1014.4 hPa | - | - | - | - |
| 1787876235 | 17.78° C | 86% | 1014.4 hPa | - | - | - | - |
| 1787872634 | 17.78° C | 84% | 1014.6 hPa | - | - | - | - |
| 1787869034 | 18.33° C | 85% | 1015 hPa | - | - | - | - |
| 1787865434 | 17.78° C | 87% | 1015.1 hPa | - | - | - | - |
* Rain since midnight (hover to see other rain measurements)
** Current wind speed in m/s (hover to see current wind gust speed)